Latest Weather Observations for Bradshaw

IDD60801

Issued at 11:31 pm CST Sunday 20 May 2018 (issued every 10 minutes, with the page automatically refreshed every 10 minutes)

About weather observations | Map of weather stations | Latest weather observations for NT | Other Formats
Station Details ID: 014954 Name: BRADSHAW Lat: -14.94 Lon: 130.81 Height: 75.0 m
Data from the previous 72 hours. | See also: Recent months at Bradshaw
Date/Time
CST
Temp
°C
App
Temp
°C
Dew
Point
°C
Rel
Hum
%
Delta-T
°C
Wind Press
QNH
hPa
Press
MSL
hPa
Rain since
9am
mm
Dir  Spd
km/h
Gust
km/h
Spd
kts
Gust
kts
20/11:30pm 20.0 19.9 9.3 50 5.7 CALM 0 0 0 0 1016.0 - 0.0
20/11:00pm 22.6 21.7 9.4 43 7.1 NNE 4 9 2 5 1016.0 - 0.0
20/10:30pm 21.8 20.2 8.7 43 7.0 N 7 9 4 5 1016.0 - 0.0
20/10:00pm 22.0 20.7 9.2 44 6.9 WSW 6 11 3 6 1016.0 - 0.0
20/09:30pm 21.3 21.2 9.5 47 6.3 CALM 0 6 0 3 1015.7 - 0.0
20/09:00pm 23.4 21.3 8.3 38 8.0 NE 9 13 5 7 1015.6 1015.3 0.0
20/08:30pm 24.0 23.6 8.4 37 8.3 CALM 0 0 0 0 1015.3 - 0.0
20/08:00pm 27.0 24.8 8.0 30 10.3 E 9 11 5 6 1014.7 - 0.0
20/07:30pm 27.3 24.6 7.2 28 10.7 E 11 13 6 7 1014.2 - 0.0
20/07:00pm 28.7 26.0 7.3 26 11.5 E 11 15 6 8 1013.7 - 0.0
20/06:30pm 29.7 26.2 7.0 24 12.2 ESE 15 24 8 13 1013.4 - 0.0
20/06:00pm 30.7 26.4 7.2 23 12.8 ESE 19 26 10 14 1013.1 1012.7 0.0
20/05:30pm 31.3 26.8 7.1 22 13.2 E 20 28 11 15 1012.7 - 0.0
20/05:00pm 31.5 27.1 7.2 22 13.3 E 20 28 11 15 1012.4 - 0.0
20/04:30pm 32.0 27.1 7.0 21 13.6 E 22 30 12 16 1012.2 - 0.0
20/04:00pm 32.1 27.2 7.0 21 13.7 E 22 30 12 16 1012.1 - 0.0
20/03:30pm 31.6 27.2 6.6 21 13.5 SE 19 28 10 15 1012.2 - 0.0
20/03:00pm 31.4 27.2 5.8 20 13.7 E 17 32 9 17 1012.4 1012.0 0.0
20/02:30pm 31.2 26.6 5.6 20 13.6 ESE 19 30 10 16 1012.6 - 0.0
20/02:00pm 30.8 25.6 5.3 20 13.4 ESE 22 35 12 19 1013.2 - 0.0
20/01:30pm 30.9 25.7 5.3 20 13.5 ESE 22 33 12 18 1013.7 - 0.0
20/01:00pm 30.5 25.6 5.0 20 13.3 ESE 20 39 11 21 1014.2 - 0.0
20/12:30pm 29.3 23.8 4.0 20 12.9 SE 22 33 12 18 1014.5 - 0.0
20/12:00pm 28.8 23.0 4.3 21 12.5 E 24 41 13 22 1015.2 1014.9 0.0
20/11:30am 28.4 23.2 3.3 20 12.6 ESE 20 30 11 16 1015.5 - 0.0
20/11:00am 27.7 22.1 3.4 21 12.2 ESE 22 30 12 16 1015.9 - 0.0
20/10:30am 26.1 19.5 2.1 21 11.6 ESE 26 35 14 19 1016.2 - 0.0
20/10:00am 25.4 18.7 1.5 21 11.4 SE 26 39 14 21 1016.4 - 0.0
20/09:30am 25.1 19.1 1.3 21 11.3 ESE 22 32 12 17 1016.4 - 0.0
20/09:00am 24.3 18.9 1.2 22 10.8 ESE 19 24 10 13 1016.2 1015.9 0.0
20/08:30am 22.3 20.1 3.4 29 9.1 SSE 4 7 2 4 1016.0 - 0.0
20/08:00am 18.7 17.2 5.2 41 6.6 NW 2 6 1 3 1015.7 - 0.0
20/07:30am 16.0 14.8 4.4 46 5.4 CALM 0 0 0 0 1015.4 - 0.0
20/07:00am 14.0 11.5 4.6 53 4.4 W 7 9 4 5 1015.0 - 0.0
20/06:30am 14.2 12.2 4.2 51 4.6 WNW 4 9 2 5 1014.5 - 0.0
20/06:00am 14.8 13.4 3.3 46 5.2 CALM 0 0 0 0 1014.3 1013.9 0.0
20/05:30am 15.0 13.5 2.9 44 5.5 CALM 0 0 0 0 1014.2 - 0.0
20/05:00am 15.1 13.5 2.6 43 5.6 CALM 0 0 0 0 1014.2 - 0.0
20/04:30am 15.8 14.0 1.5 38 6.3 CALM 0 0 0 0 1014.1 - 0.0
20/04:00am 16.5 14.8 1.8 37 6.6 CALM 0 0 0 0 1014.3 - 0.0
20/03:30am 17.0 15.3 1.8 36 6.8 CALM 0 0 0 0 1014.4 - 0.0
20/03:00am 16.8 15.0 1.3 35 6.9 CALM 0 0 0 0 1014.3 1013.9 0.0
20/02:30am 16.7 15.0 1.6 36 6.7 CALM 0 0 0 0 1014.4 - 0.0
20/02:00am 16.3 14.7 2.3 39 6.3 CALM 0 0 0 0 1014.5 - 0.0
20/01:30am 16.1 14.3 1.4 37 6.5 CALM 0 0 0 0 1014.8 - 0.0
20/01:00am 16.4 14.6 0.9 35 6.8 CALM 0 0 0 0 1015.0 - 0.0
20/12:30am 15.8 14.0 1.2 37 6.4 CALM 0 0 0 0 1015.4 - 0.0
20/12:00am 16.2 14.4 1.1 36 6.6 CALM 0 0 0 0 1015.6 1015.3 0.0
 
Date/Time
CST
Temp
°C
App
Temp
°C
Dew
Point
°C
Rel
Hum
%
Delta-T
°C
Wind Press
QNH
hPa
Press
MSL
hPa
Rain since
9am
mm
Dir  Spd
km/h
Gust
km/h
Spd
kts
Gust
kts
19/11:30pm 15.7 14.1 2.2 40 6.0 CALM 0 0 0 0 1015.7 - 0.0
19/11:00pm 16.6 14.8 1.5 36 6.7 CALM 0 4 0 2 1015.6 - 0.0
19/10:30pm 16.4 14.6 1.3 36 6.7 CALM 0 0 0 0 1015.7 - 0.0
19/10:00pm 16.9 14.6 0.5 33 7.1 NE 2 7 1 4 1015.6 - 0.0
19/09:30pm 18.1 16.3 1.2 32 7.6 CALM 0 6 0 3 1015.6 - 0.0
19/09:00pm 19.1 15.5 0.7 29 8.2 ENE 9 13 5 7 1015.4 1015.1 0.0
19/08:30pm 18.3 15.2 0.0 29 8.0 ENE 6 7 3 4 1015.0 - 0.0
19/08:00pm 22.0 18.4 -2.0 20 10.4 E 7 9 4 5 1014.5 - 0.0
19/07:30pm 23.8 19.7 -2.7 17 11.5 ESE 9 11 5 6 1013.9 - 0.0
19/07:00pm 24.7 21.0 -4.6 14 12.4 E 6 9 3 5 1013.5 - 0.0
19/06:30pm 27.1 21.9 -5.9 11 13.9 ESE 13 19 7 10 1013.1 - 0.0
19/06:00pm 28.4 22.8 -6.1 10 14.7 SE 15 22 8 12 1012.7 1012.3 0.0
19/05:30pm 29.2 22.8 -6.9 9 15.2 SE 19 24 10 13 1012.3 - 0.0
19/05:00pm 29.7 23.5 -5.1 10 15.2 SE 19 28 10 15 1012.0 - 0.0
19/04:30pm 29.8 23.0 -5.1 10 15.3 SE 22 35 12 19 1011.8 - 0.0
19/04:00pm 30.1 23.6 -6.2 9 15.6 ESE 20 37 11 20 1011.8 - 0.0
19/03:30pm 30.3 23.4 -6.1 9 15.7 SE 22 35 12 19 1011.9 - 0.0
19/03:00pm 29.8 24.7 -5.1 10 15.3 ESE 13 30 7 16 1012.1 1011.7 0.0
19/02:30pm 29.6 23.5 -3.9 11 14.9 ESE 19 30 10 16 1012.3 - 0.0
19/02:00pm 29.2 21.9 -3.1 12 14.6 SE 26 41 14 22 1012.8 - 0.0
19/01:30pm 28.6 22.0 -3.6 12 14.3 SE 22 32 12 17 1013.3 - 0.0
19/01:00pm 28.1 21.2 -2.9 13 13.9 ESE 24 35 13 19 1013.8 - 0.0
19/12:30pm 28.1 20.4 -2.9 13 13.9 ESE 28 41 15 22 1014.3 - 0.0
19/12:00pm 27.7 20.1 -2.2 14 13.5 ESE 28 41 15 22 1014.9 1014.6 0.0
19/11:30am 26.7 19.4 -3.0 14 13.1 ESE 26 39 14 21 1015.4 - 0.0
19/11:00am 25.8 19.0 -1.9 16 12.4 ESE 24 35 13 19 1015.9 - 0.0
19/10:30am 25.3 18.4 -2.3 16 12.2 ESE 24 35 13 19 1016.3 - 0.0
19/10:00am 24.2 17.7 -2.4 17 11.7 ESE 22 33 12 18 1016.4 - 0.0
19/09:30am 22.7 14.9 -3.6 17 11.1 ESE 28 41 15 22 1016.4 - 0.0
19/09:00am 22.2 15.5 -4.0 17 10.9 ESE 22 30 12 16 1016.4 1016.1 0.0
19/08:30am 21.5 16.6 -3.1 19 10.4 ESE 13 20 7 11 1016.2 - 0.0
19/08:00am 19.9 16.9 -1.8 23 9.3 NE 4 11 2 6 1015.8 - 0.0
19/07:30am 17.5 15.0 -0.7 29 7.8 ENE 2 7 1 4 1015.4 - 0.0
19/07:00am 14.7 12.4 0.2 37 6.2 NW 2 7 1 4 1015.1 - 0.0
19/06:30am 17.7 14.7 -1.5 27 8.1 ESE 4 9 2 5 1014.7 - 0.0
19/06:00am 19.7 15.7 -2.0 23 9.2 E 9 17 5 9 1014.6 1014.2 0.0
19/05:30am 20.1 15.4 -1.7 23 9.3 ESE 13 22 7 12 1014.2 - 0.0
19/05:00am 20.2 16.0 -1.0 24 9.2 E 11 19 6 10 1014.2 - 0.0
19/04:30am 20.7 16.2 0.0 25 9.2 ESE 13 22 7 12 1014.1 - 0.0
19/04:24am 20.6 15.9 1.0 27 8.9 SE 15 26 8 14 1014.2 - 0.0
19/04:00am 15.6 13.6 2.1 40 6.0 NE 2 7 1 4 1014.1 - 0.0
19/03:30am 15.2 12.9 2.7 43 5.6 N 4 9 2 5 1014.2 - 0.0
19/03:00am 13.6 11.4 3.4 50 4.6 NW 4 9 2 5 1014.3 1013.9 0.0
19/02:30am 14.3 12.9 3.5 48 4.9 CALM 0 0 0 0 1014.4 - 0.0
19/02:00am 14.4 11.9 3.5 48 5.0 NNE 6 7 3 4 1014.4 - 0.0
19/01:30am 15.1 12.9 3.3 45 5.4 NNE 4 7 2 4 1014.8 - 0.0
19/01:00am 14.8 13.3 3.0 45 5.3 CALM 0 0 0 0 1015.0 - 0.0
19/12:30am 15.9 14.1 3.7 44 5.6 NE 2 7 1 4 1015.2 - 0.0
19/12:00am 15.9 14.4 3.0 42 5.9 CALM 0 0 0 0 1015.5 1015.2 0.0
 
Date/Time
CST
Temp
°C
App
Temp
°C
Dew
Point
°C
Rel
Hum
%
Delta-T
°C
Wind Press
QNH
hPa
Press
MSL
hPa
Rain since
9am
mm
Dir  Spd
km/h
Gust
km/h
Spd
kts
Gust
kts
18/11:30pm 16.8 14.3 3.8 42 6.1 NE 6 9 3 5 1015.5 - 0.0
18/11:00pm 18.0 15.4 3.1 37 6.9 NE 6 9 3 5 1015.5 - 0.0
18/10:30pm 17.9 15.0 2.6 36 7.0 NE 7 9 4 5 1015.5 - 0.0
18/10:00pm 19.9 16.9 2.3 31 8.2 ENE 7 9 4 5 1015.4 - 0.0
18/09:30pm 19.2 16.4 2.1 32 7.9 ENE 6 7 3 4 1015.4 - 0.0
18/09:00pm 22.0 18.5 1.1 25 9.6 E 9 9 5 5 1015.3 1015.0 0.0
18/08:30pm 21.7 18.7 1.9 27 9.2 E 7 9 4 5 1015.1 - 0.0
18/08:00pm 22.7 19.1 0.5 23 10.2 SE 9 11 5 6 1014.5 - 0.0
18/07:30pm 24.7 21.4 0.3 20 11.3 SE 7 9 4 5 1013.9 - 0.0
18/07:00pm 26.1 21.6 0.0 18 12.1 SE 13 17 7 9 1013.4 - 0.0
18/06:30pm 26.7 22.2 -0.3 17 12.6 SE 13 17 7 9 1013.0 - 0.0
18/06:00pm 28.2 23.0 0.0 16 13.3 SE 17 22 9 12 1012.6 1012.2 0.0
18/05:30pm 28.8 23.0 -0.4 15 13.8 ESE 20 32 11 17 1012.4 - 0.0
18/05:00pm 29.6 23.5 0.2 15 14.1 E 22 32 12 17 1012.1 - 0.0
18/04:30pm 29.8 24.1 0.4 15 14.2 ESE 20 32 11 17 1012.1 - 0.0
18/04:00pm 29.7 23.2 0.3 15 14.1 ESE 24 37 13 20 1012.0 - 0.0
18/03:30pm 30.0 23.7 1.5 16 14.0 E 24 33 13 18 1012.1 - 0.0
18/03:00pm 29.7 24.3 1.2 16 13.9 SSE 19 37 10 20 1012.3 1011.9 0.0
18/02:30pm 29.8 23.1 1.3 16 13.9 ESE 26 44 14 24 1012.7 - 0.0
18/02:00pm 29.6 22.5 1.1 16 13.9 E 28 43 15 23 1013.0 - 0.0
18/01:30pm 28.4 20.2 0.2 16 13.4 ESE 33 44 18 24 1013.6 - 0.0
18/01:00pm 28.3 20.4 0.9 17 13.2 ESE 32 43 17 23 1014.2 - 0.0
18/12:30pm 28.6 21.1 1.2 17 13.3 ESE 30 46 16 25 1014.6 - 0.0
18/12:00pm 28.9 21.6 2.2 18 13.2 ESE 30 41 16 22 1014.8 1014.4 0.0
18/11:30am 27.8 21.1 1.3 18 12.8 ESE 26 35 14 19 1015.3 - 0.0
18/11:00am 26.5 19.3 1.0 19 12.1 ESE 28 43 15 23 1015.8 - 0.0
18/10:30am 25.4 18.5 0.1 19 11.7 ESE 26 39 14 21 1016.3 - 0.0
18/10:00am 24.4 18.1 -0.7 19 11.4 SE 22 32 12 17 1016.7 - 0.0
18/09:30am 23.5 16.9 -0.7 20 10.9 SE 24 32 13 17 1016.7 - 0.0
18/09:00am 22.2 15.4 -1.8 20 10.4 SE 24 33 13 18 1016.8 1016.5 0.0
18/08:30am 21.5 14.3 -1.7 21 10.1 SE 26 41 14 22 1016.6 - 0.0
18/08:00am 20.7 14.7 -1.8 22 9.7 SSE 20 28 11 15 1016.4 - 0.0
18/07:30am 19.8 14.7 -1.9 23 9.2 SE 15 26 8 14 1016.0 - 0.0
18/07:00am 19.5 14.1 -1.6 24 9.0 SSE 17 24 9 13 1015.5 - 0.0
18/06:30am 19.8 14.3 -1.9 23 9.2 SSE 17 26 9 14 1015.2 - 0.0
18/06:00am 19.7 14.6 -2.0 23 9.2 SE 15 20 8 11 1015.2 1014.9 0.0
18/05:30am 20.3 14.8 -2.1 22 9.5 SSE 17 24 9 13 1015.1 - 0.0
18/05:00am 18.7 14.7 0.3 29 8.1 SSE 11 20 6 11 1015.0 - 0.0
18/04:58am 17.8 13.8 0.5 31 7.6 SSE 11 19 6 10 1015.0 - 0.0
18/04:30am 12.8 9.7 -0.1 41 5.3 S 6 9 3 5 1014.9 - 0.0
18/04:00am 13.5 11.3 0.9 42 5.4 SSW 2 11 1 6 1015.2 - 0.0
18/03:30am 12.5 10.7 0.9 45 4.9 CALM 0 0 0 0 1015.3 - 0.0
18/03:00am 13.0 10.7 0.4 42 5.3 S 2 7 1 4 1015.6 1015.3 0.0
18/02:30am 13.6 11.7 0.6 41 5.5 CALM 0 0 0 0 1015.9 - 0.0
18/02:00am 14.0 11.8 1.0 41 5.6 NW 2 6 1 3 1016.1 - 0.0
18/01:30am 13.3 10.2 1.3 44 5.1 NW 7 9 4 5 1016.3 - 0.0
18/01:00am 14.7 12.4 0.5 38 6.1 NW 2 9 1 5 1016.3 - 0.0
18/12:30am 14.1 12.4 2.0 44 5.3 CALM 0 0 0 0 1016.5 - 0.0
18/12:00am 14.7 12.5 0.9 39 5.9 N 2 6 1 3 1016.5 1016.2 0.0

Other Formats:

Comma delimited format used in spreadsheet applications
http://www.bom.gov.au/fwo/IDD60801/IDD60801.94130.axf

JavaScript Object Notation format (JSON) in row-major order
http://www.bom.gov.au/fwo/IDD60801/IDD60801.94130.json